This is the latest recevied weather packets stored in our database for station/object KQ7A. If no packets are shown the sender has not sent any weather packets the latest 10 day(s).
| Time | Temp. | Humidity | Pressure | Rain* | Wind** | Luminosity | Snow |
|---|---|---|---|---|---|---|---|
| 1778078754 | 11.11° C | 74% | 1022.2 hPa | 0 mm | - | 187 W/m² | - |
| 1778078451 | 11.11° C | 74% | 1022.1 hPa | 0 mm | - | 133 W/m² | - |
| 1778078149 | 11.67° C | 73% | 1022 hPa | 0 mm | - | 104 W/m² | - |
| 1778077847 | 10.56° C | 77% | 1022 hPa | 0 mm | - | 98 W/m² | - |
| 1778077544 | 10.56° C | 76% | 1022.1 hPa | 0 mm | - | 108 W/m² | - |
| 1778077243 | 10.56° C | 76% | 1022 hPa | 0 mm | - | 75 W/m² | - |
| 1778076940 | 10° C | 78% | 1021.9 hPa | 0 mm | - | 62 W/m² | - |
| 1778076638 | 9.44° C | 82% | 1021.8 hPa | 0 mm | - | 55 W/m² | - |
| 1778076335 | 7.78° C | 90% | 1021.6 hPa | 0 mm | - | 50 W/m² | - |
| 1778076033 | 7.22° C | 92% | 1021.6 hPa | 0 mm | - | 44 W/m² | - |
| 1778075729 | 6.67° C | 94% | 1021.6 hPa | 0 mm | - | 31 W/m² | - |
| 1778075425 | 6.11° C | 94% | 1021.5 hPa | 0 mm | - | 30 W/m² | - |
| 1778075122 | 6.11° C | 94% | 1021.3 hPa | 0 mm | - | 29 W/m² | - |
| 1778074818 | 6.11° C | 94% | 1021.2 hPa | 0 mm | - | 23 W/m² | - |
| 1778074515 | 5.56° C | 94% | 1021.3 hPa | 0 mm | - | 19 W/m² | - |
| 1778074212 | 5.56° C | 94% | 1021.2 hPa | 0 mm | - | 19 W/m² | - |
| 1778073909 | 5.56° C | 94% | 1021.4 hPa | 0 mm | - | 15 W/m² | - |
| 1778073607 | 5° C | 94% | 1020.9 hPa | 0 mm | - | 12 W/m² | - |
| 1778073303 | 5° C | 94% | 1020.9 hPa | 0 mm | - | 10 W/m² | - |
| 1778072994 | 5° C | 94% | 1020.9 hPa | 0 mm | - | 6 W/m² | - |
| 1778072691 | 5° C | 93% | 1020.9 hPa | 0 mm | - | 4 W/m² | - |
| 1778072389 | 5° C | 92% | 1020.8 hPa | 0 mm | - | 3 W/m² | - |
| 1778072087 | 5.56° C | 91% | 1020.9 hPa | 0 mm | - | 0 W/m² | - |
| 1778071784 | 6.11° C | 91% | 1020.6 hPa | 0 mm | - | 0 W/m² | - |
| 1778071482 | 6.11° C | 92% | 1020.4 hPa | 0 mm | - | 0 W/m² | - |
* Rain latest hour (hover to see other rain measurements)
** Current wind speed in m/s (hover to see current wind gust speed)